createdAt,value
2018-08-09T00:01:48.478Z,17.02
2018-08-09T00:04:16.874Z,16.42
2018-08-09T00:06:45.434Z,16.40
2018-08-09T00:09:13.968Z,16.10
2018-08-09T00:11:42.449Z,16.55
2018-08-09T00:14:11.946Z,17.17
2018-08-09T00:16:40.628Z,14.80
2018-08-09T00:19:09.170Z,15.70
2018-08-09T00:21:37.788Z,17.00
2018-08-09T00:24:06.367Z,16.15
2018-08-09T00:26:34.963Z,16.77
2018-08-09T00:29:04.383Z,17.05
2018-08-09T00:31:32.988Z,15.53
2018-08-09T00:34:01.514Z,16.15
2018-08-09T00:36:29.943Z,16.15
2018-08-09T00:38:58.841Z,16.60
2018-08-09T00:41:28.141Z,16.95
2018-08-09T00:43:56.537Z,16.65
2018-08-09T00:46:24.915Z,16.32
2018-08-09T00:48:53.554Z,15.98
2018-08-09T00:51:22.102Z,15.98
2018-08-09T00:53:50.482Z,16.73
2018-08-09T00:56:18.976Z,16.73
2018-08-09T00:58:47.395Z,17.87
2018-08-09T01:01:15.915Z,17.35
2018-08-09T01:03:44.418Z,16.50
2018-08-09T01:06:12.802Z,17.82
2018-08-09T01:08:46.106Z,17.95
2018-08-09T01:11:15.101Z,17.17
2018-08-09T01:13:44.224Z,15.98
2018-08-09T01:16:12.656Z,17.95
2018-08-09T01:18:42.241Z,17.95
2018-08-09T01:21:10.766Z,17.65
2018-08-09T01:23:39.235Z,15.88
2018-08-09T01:26:07.763Z,18.05
2018-08-09T01:28:36.365Z,17.07
2018-08-09T01:31:04.975Z,18.55
2018-08-09T01:33:34.175Z,17.40
2018-08-09T01:36:02.930Z,19.25
2018-08-09T01:38:31.610Z,19.00
2018-08-09T01:41:00.253Z,19.15
2018-08-09T01:43:40.023Z,17.45
2018-08-09T01:46:08.914Z,19.40
2018-08-09T01:48:37.435Z,18.05
2018-08-09T01:51:06.078Z,19.80
2018-08-09T01:53:34.671Z,18.48
2018-08-09T01:56:03.125Z,19.20
2018-08-09T01:58:31.694Z,17.67
2018-08-09T02:01:00.291Z,18.48
2018-08-09T02:03:28.706Z,18.45
2018-08-09T02:05:57.203Z,18.42
2018-08-09T02:08:25.726Z,18.10
2018-08-09T02:10:54.250Z,16.75
2018-08-09T02:13:22.746Z,19.48
2018-08-09T02:15:51.953Z,18.70
2018-08-09T02:18:20.682Z,18.70
2018-08-09T02:20:49.346Z,18.85
2018-08-09T02:23:18.447Z,17.30
2018-08-09T02:25:47.799Z,19.30
2018-08-09T02:28:16.345Z,18.12
2018-08-09T02:30:44.886Z,18.90
2018-08-09T02:33:13.376Z,18.60
2018-08-09T02:35:41.847Z,16.73
2018-08-09T02:38:11.183Z,19.90
2018-08-09T02:40:39.786Z,18.55
2018-08-09T02:43:08.314Z,19.73
2018-08-09T02:45:36.958Z,19.23
2018-08-09T02:48:06.079Z,18.62
2018-08-09T02:50:34.707Z,18.77
2018-08-09T02:53:03.420Z,19.10
2018-08-09T02:55:31.846Z,18.75
2018-08-09T02:58:00.410Z,19.80
2018-08-09T03:00:28.945Z,19.77
2018-08-09T03:02:57.472Z,17.20
2018-08-09T03:05:26.068Z,18.73
2018-08-09T03:07:54.698Z,19.73
2018-08-09T03:10:23.318Z,20.52
2018-08-09T03:12:51.814Z,20.30
2018-08-09T03:15:20.946Z,18.90
2018-08-09T03:17:49.594Z,18.37
2018-08-09T03:20:18.099Z,18.95
2018-08-09T03:22:46.615Z,18.85
2018-08-09T03:25:15.093Z,20.15
2018-08-09T03:27:44.321Z,20.05
2018-08-09T03:30:13.444Z,19.65
2018-08-09T03:32:42.101Z,20.30
2018-08-09T03:35:10.677Z,20.27
2018-08-09T03:37:39.229Z,19.20
2018-08-09T03:40:07.721Z,21.35
2018-08-09T03:42:36.203Z,19.37
2018-08-09T03:45:04.706Z,19.23
2018-08-09T03:47:33.123Z,19.80
2018-08-09T03:50:01.609Z,20.15
2018-08-09T03:52:30.075Z,21.65
2018-08-09T03:55:00.049Z,19.65
2018-08-09T03:57:28.500Z,20.90
2018-08-09T03:59:57.687Z,20.32
2018-08-09T04:02:27.038Z,18.27
2018-08-09T04:04:55.442Z,20.70
2018-08-09T04:07:23.858Z,19.62
2018-08-09T04:09:52.226Z,19.52
2018-08-09T04:12:20.770Z,18.73
2018-08-09T04:14:49.202Z,18.82
2018-08-09T04:17:20.155Z,21.05
2018-08-09T04:19:49.798Z,19.30
2018-08-09T04:22:18.627Z,20.35
2018-08-09T04:24:47.575Z,21.17
2018-08-09T04:27:17.188Z,19.70
2018-08-09T04:29:45.726Z,19.52
2018-08-09T04:32:14.247Z,19.05
2018-08-09T04:34:42.746Z,19.05
2018-08-09T04:37:11.168Z,19.52
2018-08-09T04:39:40.263Z,18.45
2018-08-09T04:42:08.692Z,19.52
2018-08-09T04:44:37.269Z,18.75
2018-08-09T04:47:05.900Z,18.75
2018-08-09T04:49:34.270Z,18.52
2018-08-09T04:52:02.991Z,20.00
2018-08-09T04:54:31.609Z,19.07
2018-08-09T04:57:00.058Z,18.92
2018-08-09T04:59:28.479Z,19.23
2018-08-09T05:01:57.641Z,18.92
2018-08-09T05:04:26.866Z,19.37
2018-08-09T05:06:55.339Z,18.10
2018-08-09T05:09:24.058Z,20.02
2018-08-09T05:11:52.599Z,18.00
2018-08-09T05:14:21.476Z,19.17
2018-08-09T05:16:49.931Z,18.70
2018-08-09T05:19:18.378Z,19.32
2018-08-09T05:21:46.817Z,19.67
2018-08-09T05:24:15.241Z,18.45
2018-08-09T05:26:43.690Z,18.95
2018-08-09T05:29:12.098Z,19.15
2018-08-09T05:31:40.518Z,20.35
2018-08-09T05:34:09.083Z,19.32
2018-08-09T05:36:37.669Z,21.75
2018-08-09T05:39:08.988Z,23.75
2018-08-09T05:41:37.698Z,28.32
2018-08-09T05:44:06.319Z,24.60
2018-08-09T05:46:34.913Z,22.05
2018-08-09T05:49:03.423Z,22.13
2018-08-09T05:51:32.031Z,21.60
2018-08-09T05:54:01.119Z,19.70
2018-08-09T05:56:29.903Z,21.23
2018-08-09T05:58:58.446Z,19.35
2018-08-09T06:01:27.590Z,19.20
2018-08-09T06:03:56.134Z,18.67
2018-08-09T06:06:24.626Z,19.30
2018-08-09T06:08:53.290Z,22.32
2018-08-09T06:11:22.079Z,22.45
2018-08-09T06:13:50.578Z,21.15
2018-08-09T06:16:19.045Z,22.48
2018-08-09T06:18:47.621Z,21.55
2018-08-09T06:21:16.185Z,20.97
2018-08-09T06:23:44.634Z,20.85
2018-08-09T06:26:13.058Z,23.62
2018-08-09T06:28:42.272Z,21.90
2018-08-09T06:31:11.984Z,22.30
2018-08-09T06:33:40.363Z,19.62
2018-08-09T06:36:08.966Z,21.95
2018-08-09T06:38:37.422Z,21.40
2018-08-09T06:41:06.219Z,21.50
2018-08-09T06:43:34.674Z,21.52
2018-08-09T06:46:03.173Z,21.23
2018-08-09T06:48:31.619Z,23.85
2018-08-09T06:51:00.131Z,23.85
2018-08-09T06:53:28.723Z,23.32
2018-08-09T06:55:57.180Z,23.25
2018-08-09T06:58:26.375Z,21.48
2018-08-09T07:00:54.928Z,24.80
2018-08-09T07:03:23.864Z,21.50
2018-08-09T07:05:53.370Z,23.47
2018-08-09T07:08:22.018Z,21.82
2018-08-09T07:10:50.518Z,21.40
2018-08-09T07:13:19.198Z,19.07
2018-08-09T07:15:47.659Z,19.73
2018-08-09T07:18:16.079Z,20.75
2018-08-09T07:20:44.759Z,22.45
2018-08-09T07:23:13.298Z,22.93
2018-08-09T07:25:42.004Z,22.30
2018-08-09T07:28:10.452Z,20.57
2018-08-09T07:30:39.478Z,21.68
2018-08-09T07:33:08.872Z,19.40
2018-08-09T07:35:37.418Z,22.62
2018-08-09T07:38:06.052Z,20.62
2018-08-09T07:40:34.678Z,25.68
2018-08-09T07:43:03.446Z,22.48
2018-08-09T07:45:33.060Z,22.82
2018-08-09T07:48:01.660Z,25.32
2018-08-09T07:50:30.330Z,25.05
2018-08-09T07:52:58.819Z,25.92
2018-08-09T07:55:28.766Z,26.00
2018-08-09T07:57:57.887Z,26.33
2018-08-09T08:00:27.362Z,27.20
2018-08-09T08:02:55.802Z,26.87
2018-08-09T08:05:24.334Z,27.93
2018-08-09T08:07:53.870Z,27.45
2018-08-09T08:10:22.435Z,30.35
2018-08-09T08:12:50.976Z,30.10
2018-08-09T08:15:19.518Z,29.72
2018-08-09T08:17:49.163Z,32.13
2018-08-09T08:20:17.591Z,31.55
2018-08-09T08:22:46.182Z,32.33
2018-08-09T08:25:14.622Z,33.28
2018-08-09T08:27:43.212Z,33.78
2018-08-09T08:30:13.451Z,31.95
2018-08-09T08:32:42.786Z,33.18
2018-08-09T08:35:11.760Z,33.00
2018-08-09T08:37:40.934Z,31.15
2018-08-09T08:40:09.885Z,33.18
2018-08-09T08:42:38.719Z,29.02
2018-08-09T08:45:10.089Z,31.23
2018-08-09T08:47:38.810Z,31.68
2018-08-09T08:50:07.268Z,31.05
2018-08-09T08:52:35.716Z,32.55
2018-08-09T08:55:04.961Z,40.12
2018-08-09T08:57:33.402Z,36.98
2018-08-09T09:00:01.867Z,35.88
2018-08-09T09:02:30.431Z,39.03
2018-08-09T09:04:58.961Z,39.30
2018-08-09T09:07:27.405Z,41.92
2018-08-09T09:09:55.974Z,41.42
2018-08-09T09:12:24.498Z,40.30
2018-08-09T09:14:52.993Z,37.33
2018-08-09T09:17:21.488Z,38.13
2018-08-09T09:19:49.965Z,36.05
2018-08-09T09:22:18.395Z,38.10
2018-08-09T09:24:47.967Z,40.85
2018-08-09T09:27:16.452Z,39.60
2018-08-09T09:29:45.510Z,38.08
2018-08-09T09:32:14.786Z,36.30
2018-08-09T09:34:43.319Z,41.88
2018-08-09T09:37:11.754Z,46.37
2018-08-09T09:39:40.346Z,48.33
2018-08-09T09:42:09.337Z,47.30
2018-08-09T09:44:37.814Z,50.28
2018-08-09T09:47:06.298Z,60.08
2018-08-09T09:49:34.883Z,46.98
2018-08-09T09:52:03.347Z,40.78
2018-08-09T09:54:31.858Z,44.35
2018-08-09T09:57:00.334Z,40.20
2018-08-09T09:59:28.862Z,40.88
2018-08-09T10:01:57.390Z,46.75
2018-08-09T10:04:25.823Z,40.35
2018-08-09T10:06:54.374Z,37.88
2018-08-09T10:09:22.855Z,36.08
2018-08-09T10:11:51.410Z,31.70
2018-08-09T10:14:19.924Z,29.98
2018-08-09T10:16:48.980Z,32.03
2018-08-09T10:19:17.534Z,31.52
2018-08-09T10:21:46.058Z,27.73
2018-08-09T10:24:14.879Z,24.20
2018-08-09T10:26:44.136Z,20.90
2018-08-09T10:29:12.676Z,21.27
2018-08-09T10:31:41.289Z,21.70
2018-08-09T10:34:09.718Z,18.02
2018-08-09T10:36:38.143Z,18.42
2018-08-09T10:39:09.509Z,17.23
2018-08-09T10:41:38.254Z,15.28
2018-08-09T10:44:07.375Z,15.48
2018-08-09T10:46:35.864Z,15.63
2018-08-09T10:49:04.468Z,16.75
2018-08-09T10:51:33.006Z,16.60
2018-08-09T10:54:01.484Z,16.77
2018-08-09T10:56:29.946Z,16.65
2018-08-09T10:58:58.428Z,21.30
2018-08-09T11:01:26.944Z,16.23
2018-08-09T11:03:55.402Z,16.95
2018-08-09T11:06:23.953Z,16.82
2018-08-09T11:08:52.370Z,14.95
2018-08-09T11:11:20.860Z,16.20
2018-08-09T11:13:49.409Z,15.38
2018-08-09T11:16:18.726Z,15.18
2018-08-09T11:18:47.177Z,15.85
2018-08-09T11:21:16.031Z,16.95
2018-08-09T11:23:44.587Z,15.15
2018-08-09T11:26:13.276Z,14.60
2018-08-09T11:28:41.747Z,14.25
2018-08-09T11:31:10.290Z,13.15
2018-08-09T11:33:38.875Z,14.18
2018-08-09T11:36:07.358Z,12.53
2018-08-09T11:38:35.915Z,12.25
2018-08-09T11:41:05.082Z,11.97
2018-08-09T11:43:33.494Z,11.73
2018-08-09T11:46:02.099Z,10.08
2018-08-09T11:48:31.107Z,11.70
2018-08-09T11:50:59.618Z,12.95
2018-08-09T11:53:28.134Z,12.37
2018-08-09T11:55:56.657Z,12.15
2018-08-09T11:58:25.126Z,13.32
2018-08-09T12:00:53.737Z,12.47
2018-08-09T12:03:22.358Z,12.37
2018-08-09T12:05:50.851Z,11.97
2018-08-09T12:08:19.383Z,14.03
2018-08-09T12:10:47.963Z,14.85
2018-08-09T12:13:16.944Z,12.73
2018-08-09T12:15:45.482Z,14.03
2018-08-09T12:18:13.996Z,12.45
2018-08-09T12:20:42.589Z,12.33
2018-08-09T12:23:11.043Z,14.07
2018-08-09T12:25:39.617Z,13.48
2018-08-09T12:28:08.360Z,11.88
2018-08-09T12:30:37.584Z,12.98
2018-08-09T12:33:06.235Z,13.32
2018-08-09T12:35:34.711Z,11.35
2018-08-09T12:38:03.274Z,11.43
2018-08-09T12:40:31.736Z,10.72
2018-08-09T12:43:00.282Z,11.03
2018-08-09T12:45:28.847Z,11.75
2018-08-09T12:47:57.323Z,12.10
2018-08-09T12:50:25.791Z,10.58
2018-08-09T12:52:54.332Z,10.58
2018-08-09T12:55:22.783Z,10.63
2018-08-09T12:57:51.302Z,11.08
2018-08-09T13:00:20.492Z,11.00
2018-08-09T13:02:48.996Z,9.95
2018-08-09T13:05:17.519Z,10.75
2018-08-09T13:07:46.020Z,10.70
2018-08-09T13:10:15.167Z,11.15
2018-08-09T13:12:43.659Z,11.40
2018-08-09T13:15:13.818Z,10.88
2018-08-09T13:17:43.206Z,10.82
2018-08-09T13:20:16.048Z,11.68
2018-08-09T13:22:44.554Z,11.90
2018-08-09T13:25:13.053Z,11.97
2018-08-09T13:27:41.556Z,12.50
2018-08-09T13:30:12.578Z,13.00
2018-08-09T13:32:41.911Z,13.48
2018-08-09T13:35:10.564Z,12.58
2018-08-09T13:37:39.388Z,13.25
2018-08-09T13:40:09.341Z,13.05
2018-08-09T13:42:38.243Z,13.00
2018-08-09T13:45:07.891Z,13.65
2018-08-09T13:47:36.451Z,12.33
2018-08-09T13:50:05.702Z,13.62
2018-08-09T13:52:34.170Z,11.88
2018-08-09T13:55:03.370Z,13.22
2018-08-09T13:57:31.846Z,12.95
2018-08-09T14:00:00.583Z,10.85
2018-08-09T14:02:29.502Z,11.83
2018-08-09T14:04:58.154Z,11.80
2018-08-09T14:07:26.823Z,14.87
2018-08-09T14:09:55.364Z,12.85
2018-08-09T14:12:23.885Z,13.90
2018-08-09T14:14:52.662Z,13.32
2018-08-09T14:17:21.238Z,15.43
2018-08-09T14:19:49.761Z,14.33
2018-08-09T14:22:18.799Z,15.40
2018-08-09T14:24:47.409Z,14.78
2018-08-09T14:27:15.928Z,16.37
2018-08-09T14:29:44.463Z,15.03
2018-08-09T14:32:13.001Z,15.93
2018-08-09T14:34:41.995Z,15.50
2018-08-09T14:37:10.687Z,16.05
2018-08-09T14:39:39.289Z,14.93
2018-08-09T14:42:07.826Z,15.03
2018-08-09T14:44:36.327Z,14.03
2018-08-09T14:47:04.827Z,15.10
2018-08-09T14:49:33.394Z,16.52
2018-08-09T14:52:01.941Z,15.18
2018-08-09T14:54:30.422Z,15.43
2018-08-09T14:56:59.916Z,17.02
2018-08-09T14:59:28.384Z,29.37
2018-08-09T15:01:56.939Z,27.58
2018-08-09T15:04:25.480Z,23.00
2018-08-09T15:06:54.737Z,20.00
2018-08-09T15:09:23.971Z,20.92
2018-08-09T15:11:53.297Z,21.55
2018-08-09T15:14:21.852Z,19.07
2018-08-09T15:16:50.391Z,20.80
2018-08-09T15:19:18.967Z,19.57
2018-08-09T15:21:47.531Z,20.92
2018-08-09T15:24:16.077Z,24.12
2018-08-09T15:26:44.676Z,20.02
2018-08-09T15:29:13.188Z,20.10
2018-08-09T15:31:41.722Z,20.25
2018-08-09T15:34:10.248Z,21.93
2018-08-09T15:36:38.904Z,20.43
2018-08-09T15:39:11.011Z,19.70
2018-08-09T15:41:40.532Z,20.97
2018-08-09T15:44:09.735Z,20.90
2018-08-09T15:46:38.742Z,20.40
2018-08-09T15:49:07.878Z,20.72
2018-08-09T15:51:36.459Z,19.35
2018-08-09T15:54:05.174Z,18.85
2018-08-09T15:56:33.811Z,18.95
2018-08-09T15:59:02.501Z,20.00
2018-08-09T16:01:31.156Z,19.00
2018-08-09T16:04:00.669Z,18.80
2018-08-09T16:06:29.232Z,19.15
2018-08-09T16:08:57.900Z,18.30
2018-08-09T16:11:26.554Z,19.27
2018-08-09T16:13:55.108Z,19.15
2018-08-09T16:16:23.676Z,18.25
2018-08-09T16:18:52.757Z,17.05
2018-08-09T16:21:21.420Z,18.82
2018-08-09T16:23:50.061Z,18.67
2018-08-09T16:26:19.436Z,18.50
2018-08-09T16:28:48.074Z,18.10
2018-08-09T16:31:17.527Z,18.20
2018-08-09T16:33:46.132Z,18.37
2018-08-09T16:36:15.353Z,19.95
2018-08-09T16:38:43.879Z,17.67
2018-08-09T16:41:12.437Z,18.02
2018-08-09T16:43:41.475Z,20.57
2018-08-09T16:46:10.178Z,18.20
2018-08-09T16:48:39.648Z,18.77
2018-08-09T16:51:08.288Z,19.07
2018-08-09T16:53:36.892Z,17.82
2018-08-09T16:56:05.797Z,18.35
2018-08-09T16:58:34.362Z,17.75
2018-08-09T17:01:02.883Z,16.82
2018-08-09T17:03:31.483Z,16.40
2018-08-09T17:06:00.132Z,17.12
2018-08-09T17:08:28.692Z,16.32
2018-08-09T17:10:57.281Z,18.25
2018-08-09T17:13:25.807Z,16.67
2018-08-09T17:15:54.892Z,17.67
2018-08-09T17:18:23.480Z,17.60
2018-08-09T17:20:52.330Z,17.87
2018-08-09T17:23:20.879Z,16.62
2018-08-09T17:25:49.511Z,16.80
2018-08-09T17:28:18.142Z,17.23
2018-08-09T17:30:46.745Z,19.12
2018-08-09T17:33:15.314Z,16.40
2018-08-09T17:35:43.857Z,16.90
2018-08-09T17:38:12.358Z,18.00
2018-08-09T17:40:40.931Z,17.65
2018-08-09T17:43:09.537Z,17.07
2018-08-09T17:45:38.113Z,16.37
2018-08-09T17:48:06.789Z,17.30
2018-08-09T17:50:35.416Z,17.42
2018-08-09T17:53:04.761Z,19.17
2018-08-09T17:55:33.758Z,17.48
2018-08-09T17:58:02.398Z,17.32
2018-08-09T18:00:32.470Z,18.45
2018-08-09T18:03:01.083Z,16.82
2018-08-09T18:05:29.620Z,17.17
2018-08-09T18:07:58.893Z,16.75
2018-08-09T18:10:29.920Z,18.70
2018-08-09T18:12:58.553Z,17.10
2018-08-09T18:15:28.290Z,17.07
2018-08-09T18:17:58.494Z,16.40
2018-08-09T18:20:29.784Z,17.77
2018-08-09T18:22:59.304Z,18.15
2018-08-09T18:25:27.991Z,17.60
2018-08-09T18:27:56.503Z,16.60
2018-08-09T18:30:25.103Z,18.87
2018-08-09T18:32:54.105Z,18.12
2018-08-09T18:35:22.763Z,17.30
2018-08-09T18:37:51.466Z,17.17
2018-08-09T18:40:24.923Z,19.48
2018-08-09T18:42:53.558Z,17.60
2018-08-09T18:45:23.276Z,17.73
2018-08-09T18:47:51.865Z,17.85
2018-08-09T18:50:24.046Z,20.77
2018-08-09T18:52:52.608Z,19.60
2018-08-09T18:55:21.425Z,17.35
2018-08-09T18:57:49.939Z,18.82
2018-08-09T19:00:21.873Z,17.73
2018-08-09T19:02:50.840Z,17.77
2018-08-09T19:05:19.662Z,19.35
2018-08-09T19:07:48.897Z,19.15
2018-08-09T19:10:24.035Z,17.87
2018-08-09T19:12:52.589Z,21.33
2018-08-09T19:15:21.223Z,19.42
2018-08-09T19:17:50.043Z,16.30
2018-08-09T19:20:20.807Z,18.27
2018-08-09T19:22:49.514Z,16.62
2018-08-09T19:25:18.112Z,17.85
2018-08-09T19:27:46.725Z,18.30
2018-08-09T19:30:16.910Z,19.32
2018-08-09T19:32:45.578Z,17.37
2018-08-09T19:35:15.440Z,19.12
2018-08-09T19:37:44.031Z,18.05
2018-08-09T19:40:14.348Z,16.97
2018-08-09T19:42:42.963Z,17.35
2018-08-09T19:45:14.090Z,18.73
2018-08-09T19:47:42.718Z,16.35
2018-08-09T19:50:13.451Z,17.10
2018-08-09T19:52:42.039Z,17.98
2018-08-09T19:55:18.031Z,18.73
2018-08-09T19:57:47.905Z,17.42
2018-08-09T20:00:19.568Z,18.27
2018-08-09T20:02:48.920Z,16.90
2018-08-09T20:05:17.771Z,18.00
2018-08-09T20:07:46.508Z,19.90
2018-08-09T20:10:15.505Z,17.10
2018-08-09T20:12:45.089Z,17.05
2018-08-09T20:15:16.316Z,17.35
2018-08-09T20:17:44.964Z,17.70
2018-08-09T20:20:14.776Z,18.42
2018-08-09T20:22:43.499Z,17.98
2018-08-09T20:25:12.921Z,18.20
2018-08-09T20:27:42.062Z,17.77
2018-08-09T20:30:12.223Z,20.30
2018-08-09T20:32:41.133Z,19.07
2018-08-09T20:35:11.872Z,18.07
2018-08-09T20:37:40.526Z,18.85
2018-08-09T20:40:10.427Z,19.40
2018-08-09T20:42:39.470Z,18.02
2018-08-09T20:45:09.788Z,18.40
2018-08-09T20:47:38.350Z,19.27
2018-08-09T20:50:09.421Z,18.35
2018-08-09T20:52:38.590Z,18.62
2018-08-09T20:55:08.019Z,18.60
2018-08-09T20:57:36.802Z,18.65
2018-08-09T21:00:12.654Z,18.27
2018-08-09T21:02:41.183Z,17.05
2018-08-09T21:05:10.471Z,18.73
2018-08-09T21:07:39.032Z,18.55
2018-08-09T21:10:07.714Z,17.80
2018-08-09T21:12:36.303Z,18.05
2018-08-09T21:15:05.853Z,17.23
2018-08-09T21:17:34.332Z,17.25
2018-08-09T21:20:03.587Z,17.85
2018-08-09T21:22:32.158Z,18.65
2018-08-09T21:25:00.664Z,17.98
2018-08-09T21:27:29.192Z,17.87
2018-08-09T21:29:57.747Z,17.35
2018-08-09T21:32:26.241Z,18.10
2018-08-09T21:34:54.734Z,18.07
2018-08-09T21:37:23.311Z,17.12
2018-08-09T21:39:51.713Z,16.85
2018-08-09T21:42:20.210Z,18.20
2018-08-09T21:44:48.682Z,17.98
2018-08-09T21:47:17.219Z,18.60
2018-08-09T21:49:45.702Z,18.20
2018-08-09T21:52:14.270Z,18.55
2018-08-09T21:54:42.875Z,18.40
2018-08-09T21:57:11.350Z,17.77
2018-08-09T21:59:39.926Z,17.92
2018-08-09T22:02:08.378Z,19.07
2018-08-09T22:04:42.204Z,18.42
2018-08-09T22:07:15.996Z,17.90
2018-08-09T22:09:49.947Z,18.57
2018-08-09T22:12:24.380Z,18.10
2018-08-09T22:14:58.816Z,18.50
2018-08-09T22:17:32.580Z,18.42
2018-08-09T22:20:06.267Z,17.20
2018-08-09T22:22:37.301Z,19.40
2018-08-09T22:25:07.582Z,18.02
2018-08-09T22:27:36.197Z,19.27
2018-08-09T22:30:06.470Z,16.60
2018-08-09T22:32:35.056Z,19.42
2018-08-09T22:35:03.812Z,18.98
2018-08-09T22:37:32.235Z,18.35
2018-08-09T22:40:00.815Z,19.40
2018-08-09T22:42:29.339Z,19.12
2018-08-09T22:44:57.802Z,18.90
2018-08-09T22:47:26.442Z,19.82
2018-08-09T22:49:55.054Z,19.82
2018-08-09T22:52:23.560Z,18.57
2018-08-09T22:54:52.029Z,19.45
2018-08-09T22:57:20.462Z,19.62
2018-08-09T22:59:48.904Z,19.42
2018-08-09T23:02:17.415Z,19.42
2018-08-09T23:04:45.842Z,18.48
2018-08-09T23:07:14.910Z,17.60
2018-08-09T23:09:43.356Z,19.65
2018-08-09T23:12:11.899Z,20.80
2018-08-09T23:14:40.866Z,19.95
2018-08-09T23:17:09.300Z,17.60
2018-08-09T23:19:37.799Z,19.00
2018-08-09T23:22:06.323Z,17.85
2018-08-09T23:24:34.822Z,17.98
2018-08-09T23:27:03.319Z,17.30
2018-08-09T23:29:31.763Z,16.60
2018-08-09T23:32:00.288Z,20.00
2018-08-09T23:34:28.718Z,17.30
2018-08-09T23:36:57.135Z,18.70
2018-08-09T23:39:26.209Z,17.62
2018-08-09T23:41:54.671Z,20.05
2018-08-09T23:44:23.175Z,18.05
2018-08-09T23:46:51.794Z,19.30
2018-08-09T23:49:20.189Z,18.95
2018-08-09T23:51:48.690Z,19.52
2018-08-09T23:54:17.138Z,19.15
2018-08-09T23:56:45.690Z,18.77
2018-08-09T23:59:14.148Z,18.57
